Loenerborg — PCHH — position and weather

sailwx.info

Track history (hours):
 
Tides and Currents Weather Stations Pressure Air Temp Water Temp Dewpoint Dewpoint Depression Visibility Wind Speed Wind Dir Waves Ship Positions

Loenerborg

Last reported at 2018-Feb-20 21:29 UTC. Time now 2018-Feb-20 21:48 UTC.
Position N 51°50' W 008°20'.

Length 108 m; draft 6.2 m.

Type: Cargo ship. MMSI: 244710117.

Date/timePositionNaut miles runAvg speedWind from/ knotsBaromVisibWave heightAir tempDewpointWater temp
2018-Feb-20 21:29N 51°50' W 008°20'0 0.0
2018-Feb-20 20:59N 51°50' W 008°20'0 0.0
2018-Feb-20 20:29N 51°50' W 008°20'0 0.0
2018-Feb-20 19:59N 51°50' W 008°20'0 0.0
2018-Feb-20 19:29N 51°50' W 008°20'0 0.0
2018-Feb-20 18:59N 51°50' W 008°20'0 0.0
2018-Feb-20 18:29N 51°50' W 008°20'0 0.0
2018-Feb-20 17:59N 51°50' W 008°20'0 0.0
2018-Feb-20 17:29N 51°50' W 008°20'0 0.0
2018-Feb-20 16:59N 51°50' W 008°20'0 0.0
2018-Feb-20 16:29N 51°50' W 008°20'0 0.0
2018-Feb-20 15:59N 51°50' W 008°20'0 0.0
2018-Feb-20 15:29N 51°50' W 008°20'0 0.0
2018-Feb-20 14:59N 51°50' W 008°20'0 0.0
2018-Feb-20 14:29N 51°50' W 008°20'0 0.0
2018-Feb-20 13:59N 51°50' W 008°20'0 0.0
2018-Feb-20 13:30N 51°50' W 008°20'0 0.0
2018-Feb-20 13:00N 51°50' W 008°20'0 0.0
2018-Feb-20 12:30N 51°50' W 008°20'2 3.6
2018-Feb-20 12:00N 51°51' W 008°17'3 6.3
2018-Feb-20 11:30N 51°48' W 008°16'4 7.3
2018-Feb-20 11:00N 51°45' W 008°12'510.9
2018-Feb-20 10:30N 51°44' W 008°03'510.8
2018-Feb-20 10:00N 51°46' W 007°55'510.8
2018-Feb-20 09:30N 51°47' W 007°47'510.7
2018-Feb-20 09:00N 51°49' W 007°38'510.8
2018-Feb-20 08:30N 51°50' W 007°30'510.6
2018-Feb-20 08:00N 51°52' W 007°22'510.9
2018-Feb-20 07:30N 51°54' W 007°14'510.8
2018-Feb-20 07:00N 51°55' W 007°05'510.8
2018-Feb-20 06:30N 51°56' W 006°56'611.2
2018-Feb-20 06:00N 51°58' W 006°48'711.8
2018-Feb-20 05:25N 51°60' W 006°37'612.4
2018-Feb-20 04:58N 52°02' W 006°29'613.1
2018-Feb-20 04:30N 52°05' W 006°20'713.8
2018-Feb-20 04:00N 52°08' W 006°11'714.1
2018-Feb-20 03:30N 52°15' W 006°05'714.2
2018-Feb-20 03:00N 52°22' W 006°02'2612.5
2018-Feb-20 00:56N 52°47' W 005°52'511.1
2018-Feb-20 00:30N 52°52' W 005°50'510.6
2018-Feb-20 00:00N 52°57' W 005°48'510.0
2018-Feb-19 23:31N 53°01' W 005°46'7311.2
2018-Feb-19 16:59N 54°13' W 005°21'510.5
2018-Feb-19 16:30N 54°18' W 005°19'510.3
2018-Feb-19 16:01N 54°23' W 005°18'5 9.7
2018-Feb-19 15:30N 54°27' W 005°18'5 9.9
2018-Feb-19 15:00N 54°32' W 005°20'5 9.6
2018-Feb-19 14:30N 54°37' W 005°23'5 9.7
2018-Feb-19 14:00N 54°41' W 005°27'4 8.5
2018-Feb-19 13:30N 54°43' W 005°33'510.9
2018-Feb-19 13:00N 54°42' W 005°43'7 9.6
2018-Feb-19 12:16N 54°38' W 005°53'1 0.1
2018-Feb-18 18:08N 54°37' W 005°55'0 0.0
2018-Feb-18 01:35N 54°37' W 005°55'0 0.0
2018-Feb-17 15:05N 54°37' W 005°55'0 0.0
2018-Feb-17 07:32N 54°37' W 005°55'0 0.0
2018-Feb-15 22:25N 54°37' W 005°55'0 0.2
2018-Feb-15 21:56N 54°37' W 005°55'1 2.5
2018-Feb-15 21:29N 54°38' W 005°53'4 8.8
2018-Feb-15 21:01N 54°41' W 005°49'5 9.6
2018-Feb-15 20:31N 54°42' W 005°41'1 2.9
2018-Feb-15 20:00N 54°41' W 005°39'0 0.0
2018-Feb-15 19:30N 54°41' W 005°39'0 0.0
2018-Feb-15 19:00N 54°41' W 005°39'0 0.0
2018-Feb-15 18:30N 54°41' W 005°39'0 0.0
2018-Feb-15 18:00N 54°41' W 005°39'0 0.0
2018-Feb-15 17:30N 54°41' W 005°39'0 0.0
2018-Feb-15 17:00N 54°41' W 005°39'0 0.0
2018-Feb-15 16:30N 54°41' W 005°39'0 0.1
2018-Feb-15 16:00N 54°41' W 005°39'0 0.0
2018-Feb-15 15:30N 54°41' W 005°39'0 0.0
2018-Feb-15 15:00N 54°41' W 005°39'0 0.0
2018-Feb-15 14:30N 54°41' W 005°39'0 0.0
2018-Feb-15 14:00N 54°41' W 005°39'0 0.0
2018-Feb-15 13:30N 54°41' W 005°39'0 0.0
2018-Feb-15 13:00N 54°41' W 005°39'0 0.0
2018-Feb-15 12:30N 54°41' W 005°39'0 0.0
2018-Feb-15 12:00N 54°41' W 005°39'0 0.0
2018-Feb-15 11:30N 54°41' W 005°39'0 0.0
2018-Feb-15 10:57N 54°41' W 005°39'0 0.0
2018-Feb-15 10:30N 54°41' W 005°39'0 0.1
2018-Feb-15 10:00N 54°41' W 005°39'0 0.0
2018-Feb-15 09:30N 54°41' W 005°39'0 0.0
2018-Feb-15 09:00N 54°41' W 005°39'0 0.0
2018-Feb-15 08:30N 54°41' W 005°39'0 0.0
2018-Feb-15 08:00N 54°41' W 005°39'0 0.0
2018-Feb-15 07:30N 54°41' W 005°39'0 0.0
2018-Feb-15 07:00N 54°41' W 005°39'0 0.0
2018-Feb-15 06:24N 54°41' W 005°39'0 0.0
2018-Feb-15 06:00N 54°41' W 005°39'0 0.0
2018-Feb-15 05:30N 54°41' W 005°39'0 0.0
2018-Feb-15 05:00N 54°41' W 005°39'0 0.0
2018-Feb-15 04:30N 54°41' W 005°39'0 0.0
2018-Feb-15 03:57N 54°41' W 005°39'0 0.0
2018-Feb-15 03:30N 54°41' W 005°39'0 0.0
2018-Feb-15 03:00N 54°41' W 005°39'0 0.0
2018-Feb-15 02:30N 54°41' W 005°39'0 0.0
2018-Feb-15 02:00N 54°41' W 005°39'0 0.0
2018-Feb-15 01:30N 54°41' W 005°39'0 0.1
2018-Feb-15 01:00N 54°41' W 005°39'0 0.0
2018-Feb-15 00:30N 54°41' W 005°39'0 0.0
2018-Feb-15 00:00N 54°41' W 005°39'0 0.0
2018-Feb-14 23:30N 54°41' W 005°39'0 0.0
2018-Feb-14 23:00N 54°41' W 005°39'0 0.0
2018-Feb-14 22:30N 54°41' W 005°39'0 0.1
2018-Feb-14 22:00N 54°41' W 005°39'0 0.1
2018-Feb-14 21:30N 54°41' W 005°39'0 0.5
2018-Feb-14 21:01N 54°42' W 005°39'3 6.2
2018-Feb-14 20:30N 54°43' W 005°34'4 8.6
2018-Feb-14 20:01N 54°43' W 005°27'4 8.6
2018-Feb-14 19:31N 54°39' W 005°23'5 9.0
2018-Feb-14 19:01N 54°35' W 005°19'5 9.4
2018-Feb-14 18:31N 54°31' W 005°15'5 9.4
2018-Feb-14 18:00N 54°27' W 005°12'5 9.7
2018-Feb-14 17:30N 54°22' W 005°09'63 4.0
2018-Feb-14 01:46N 53°34' W 003°60'413.0
2018-Feb-14 01:30N 53°34' W 003°54'612.9
2018-Feb-14 01:00N 53°34' W 003°43'612.5
2018-Feb-14 00:30N 53°34' W 003°33'612.3
2018-Feb-14 00:01N 53°33' W 003°22'5 9.9
2018-Feb-13 23:30N 53°31' W 003°15'611.0
2018-Feb-13 23:00N 53°30' W 003°06'612.3
2018-Feb-13 22:30N 53°25' W 003°00'510.3
2018-Feb-13 22:01N 53°21' W 002°54'0 0.3
2018-Feb-13 21:30N 53°21' W 002°54'0 0.0
2018-Feb-13 21:00N 53°21' W 002°54'0 0.0
2018-Feb-13 20:30N 53°21' W 002°54'0 0.0
2018-Feb-13 20:00N 53°21' W 002°54'0 0.0
2018-Feb-13 19:27N 53°21' W 002°54'0 0.0
2018-Feb-13 18:57N 53°21' W 002°54'0 0.0
2018-Feb-13 18:30N 53°21' W 002°54'0 0.0
2018-Feb-13 17:53N 53°21' W 002°54'0 0.0
2018-Feb-13 17:30N 53°21' W 002°54'0 0.0
2018-Feb-13 17:00N 53°21' W 002°54'0 0.0
2018-Feb-13 16:30N 53°21' W 002°54'0 0.0
2018-Feb-13 16:00N 53°21' W 002°54'0 0.0
2018-Feb-13 15:26N 53°21' W 002°54'0 0.0
2018-Feb-13 15:00N 53°21' W 002°54'0 0.0
2018-Feb-13 14:17N 53°21' W 002°54'0 0.0
2018-Feb-13 14:00N 53°21' W 002°54'0 0.0
2018-Feb-13 13:30N 53°21' W 002°54'0 0.0
2018-Feb-13 12:59N 53°21' W 002°54'0 0.0
2018-Feb-13 12:29N 53°21' W 002°54'0 0.0
2018-Feb-13 11:59N 53°21' W 002°54'0 0.0
2018-Feb-13 11:29N 53°21' W 002°54'0 0.0
2018-Feb-13 10:59N 53°21' W 002°54'0 0.0
2018-Feb-13 10:26N 53°21' W 002°54'0 0.0
2018-Feb-13 09:59N 53°21' W 002°54'0 0.0
2018-Feb-13 09:26N 53°21' W 002°54'0 0.0
2018-Feb-13 08:59N 53°21' W 002°54'0 0.0
2018-Feb-13 08:29N 53°21' W 002°54'0 0.0
2018-Feb-13 07:59N 53°21' W 002°54'0 0.0
2018-Feb-13 07:29N 53°21' W 002°54'0 0.0
2018-Feb-13 06:50N 53°21' W 002°54'0 0.0
2018-Feb-13 06:29N 53°21' W 002°54'0 0.0
2018-Feb-13 05:59N 53°21' W 002°54'0 0.0
2018-Feb-13 05:29N 53°21' W 002°54'0 0.0
2018-Feb-13 04:56N 53°21' W 002°54'0 0.0
2018-Feb-13 04:23N 53°21' W 002°54'0 0.0
2018-Feb-13 03:56N 53°21' W 002°54'0 0.0
2018-Feb-13 03:23N 53°21' W 002°54'0 0.0
2018-Feb-13 02:59N 53°21' W 002°54'0 0.0
2018-Feb-13 02:26N 53°21' W 002°54'0 0.0
2018-Feb-13 01:59N 53°21' W 002°54'0 0.0
2018-Feb-13 01:29N 53°21' W 002°54'0 0.0
2018-Feb-13 00:59N 53°21' W 002°54'0 0.0
2018-Feb-13 00:29N 53°21' W 002°54'0 0.0
2018-Feb-12 23:59N 53°21' W 002°54'0 0.0
2018-Feb-12 23:26N 53°21' W 002°54'0 0.0
2018-Feb-12 22:59N 53°21' W 002°54'0 0.0
2018-Feb-12 22:29N 53°21' W 002°54'0 0.0
2018-Feb-12 21:59N 53°21' W 002°54'0 0.0
2018-Feb-12 21:26N 53°21' W 002°54'0 0.0
2018-Feb-12 20:59N 53°21' W 002°54'0 0.0
2018-Feb-12 20:29N 53°21' W 002°54'0 0.0
2018-Feb-12 19:56N 53°21' W 002°54'0 0.0
2018-Feb-12 19:29N 53°21' W 002°54'0 0.0
2018-Feb-12 18:56N 53°21' W 002°54'0 0.0
2018-Feb-12 18:29N 53°21' W 002°54'0 0.0
2018-Feb-12 17:56N 53°21' W 002°54'0 0.0
2018-Feb-12 17:23N 53°21' W 002°54'0 0.0
2018-Feb-12 16:56N 53°21' W 002°54'0 0.0
2018-Feb-12 16:29N 53°21' W 002°54'0 0.0
2018-Feb-12 15:59N 53°21' W 002°54'0 0.0
2018-Feb-12 15:08N 53°21' W 002°54'0 0.0
2018-Feb-12 14:59N 53°21' W 002°54'0 0.0
2018-Feb-12 14:23N 53°21' W 002°54'0 0.0
2018-Feb-12 13:59N 53°21' W 002°54'0 0.0
2018-Feb-12 13:29N 53°21' W 002°54'0 0.0
2018-Feb-12 12:59N 53°21' W 002°54'0 0.0
2018-Feb-12 12:29N 53°21' W 002°54'0 0.0
2018-Feb-12 11:59N 53°21' W 002°54'0 0.0
2018-Feb-12 11:26N 53°21' W 002°54'0 0.0
2018-Feb-12 10:59N 53°21' W 002°54'0 0.0
2018-Feb-12 10:29N 53°21' W 002°54'0 0.0
2018-Feb-12 09:59N 53°21' W 002°54'0 0.0
2018-Feb-12 09:29N 53°21' W 002°54'0 0.0
2018-Feb-12 08:59N 53°21' W 002°54'0 0.0
2018-Feb-12 08:29N 53°21' W 002°54'0 0.0
2018-Feb-12 07:53N 53°21' W 002°54'0 0.0
2018-Feb-12 07:26N 53°21' W 002°54'0 0.0
2018-Feb-12 06:59N 53°21' W 002°54'0 0.0
2018-Feb-12 06:29N 53°21' W 002°54'0 0.0
2018-Feb-12 05:59N 53°21' W 002°54'0 0.0
2018-Feb-12 05:29N 53°21' W 002°54'0 0.0
2018-Feb-12 04:59N 53°21' W 002°54'0 0.0
2018-Feb-12 04:29N 53°21' W 002°54'0 0.0
2018-Feb-12 03:59N 53°21' W 002°54'0 0.0
2018-Feb-12 03:29N 53°21' W 002°54'0 0.0
2018-Feb-12 02:59N 53°21' W 002°54'0 0.0
2018-Feb-12 02:29N 53°21' W 002°54'0 0.0
2018-Feb-12 01:59N 53°21' W 002°54'0 0.0
2018-Feb-12 01:29N 53°21' W 002°54'0 0.0
2018-Feb-12 00:59N 53°21' W 002°54'0 0.0
2018-Feb-12 00:29N 53°21' W 002°54'0 0.0
2018-Feb-11 23:59N 53°21' W 002°54'0 0.0
2018-Feb-11 23:29N 53°21' W 002°54'0 0.0
2018-Feb-11 22:59N 53°21' W 002°54'0 0.0
2018-Feb-11 22:29N 53°21' W 002°54'0 0.0
2018-Feb-11 21:59N 53°21' W 002°54'0 0.0
2018-Feb-11 21:29N 53°21' W 002°54'0 0.0
2018-Feb-11 21:00N 53°21' W 002°54'0 0.7
2018-Feb-11 20:30N 53°21' W 002°55'2 3.1
2018-Feb-11 20:00N 53°22' W 002°57'2 4.6
2018-Feb-11 19:30N 53°23' W 002°60'3 6.2
2018-Feb-11 19:00N 53°26' W 003°01'510.2
2018-Feb-11 18:29N 53°31' W 003°06'5 9.6
2018-Feb-11 18:00N 53°31' W 003°14'611.0
2018-Feb-11 17:30N 53°33' W 003°23'611.5
2018-Feb-11 17:00N 53°37' W 003°30'611.7
2018-Feb-11 16:28N 53°41' W 003°38'61 6.3
2018-Feb-11 06:47N 54°17' W 005°03'3 9.1
2018-Feb-11 06:30N 54°19' W 005°04'5 9.2
2018-Feb-11 06:00N 54°24' W 005°07'5 9.2
2018-Feb-11 05:30N 54°28' W 005°09'5 9.6
2018-Feb-11 05:00N 54°33' W 005°12'510.5
2018-Feb-11 04:30N 54°37' W 005°17'511.0
2018-Feb-11 04:00N 54°42' W 005°22'611.5
2018-Feb-11 03:30N 54°47' W 005°27'611.7
2018-Feb-11 03:00N 54°52' W 005°32'2310.8
2018-Feb-11 00:55N 55°11' W 005°54'410.0
2018-Feb-11 00:30N 55°14' W 005°58'5 9.4
2018-Feb-11 00:00N 55°18' W 006°03'5 9.0
2018-Feb-10 23:30N 55°21' W 006°08'5 9.5
2018-Feb-10 23:00N 55°23' W 006°16'510.4
2018-Feb-10 22:30N 55°27' W 006°22'510.1
2018-Feb-10 22:00N 55°31' W 006°27'510.0
2018-Feb-10 21:29N 55°35' W 006°33'  
Track history (hours):
 
Tides and Currents Weather Stations Pressure Air Temp Water Temp Dewpoint Dewpoint Depression Visibility Wind Speed Wind Dir Waves Ship Positions

Loenerborg

Last reported at 2018-Feb-20 21:29 UTC. Time now 2018-Feb-20 21:48 UTC.
Position N 51°50' W 008°20'.

Length 108 m; draft 6.2 m.

Type: Cargo ship. MMSI: 244710117.

Date/timePositionNaut miles runAvg speedWind from/ knotsBaromVisibWave heightAir tempDewpointWater temp
2018-Feb-20 21:29N 51°50' W 008°20'0 0.0
2018-Feb-20 20:59N 51°50' W 008°20'0 0.0
2018-Feb-20 20:29N 51°50' W 008°20'0 0.0
2018-Feb-20 19:59N 51°50' W 008°20'0 0.0
2018-Feb-20 19:29N 51°50' W 008°20'0 0.0
2018-Feb-20 18:59N 51°50' W 008°20'0 0.0
2018-Feb-20 18:29N 51°50' W 008°20'0 0.0
2018-Feb-20 17:59N 51°50' W 008°20'0 0.0
2018-Feb-20 17:29N 51°50' W 008°20'0 0.0
2018-Feb-20 16:59N 51°50' W 008°20'0 0.0
2018-Feb-20 16:29N 51°50' W 008°20'0 0.0
2018-Feb-20 15:59N 51°50' W 008°20'0 0.0
2018-Feb-20 15:29N 51°50' W 008°20'0 0.0
2018-Feb-20 14:59N 51°50' W 008°20'0 0.0
2018-Feb-20 14:29N 51°50' W 008°20'0 0.0
2018-Feb-20 13:59N 51°50' W 008°20'0 0.0
2018-Feb-20 13:30N 51°50' W 008°20'0 0.0
2018-Feb-20 13:00N 51°50' W 008°20'0 0.0
2018-Feb-20 12:30N 51°50' W 008°20'2 3.6
2018-Feb-20 12:00N 51°51' W 008°17'3 6.3
2018-Feb-20 11:30N 51°48' W 008°16'4 7.3
2018-Feb-20 11:00N 51°45' W 008°12'510.9
2018-Feb-20 10:30N 51°44' W 008°03'510.8
2018-Feb-20 10:00N 51°46' W 007°55'510.8
2018-Feb-20 09:30N 51°47' W 007°47'510.7
2018-Feb-20 09:00N 51°49' W 007°38'510.8
2018-Feb-20 08:30N 51°50' W 007°30'510.6
2018-Feb-20 08:00N 51°52' W 007°22'510.9
2018-Feb-20 07:30N 51°54' W 007°14'510.8
2018-Feb-20 07:00N 51°55' W 007°05'510.8
2018-Feb-20 06:30N 51°56' W 006°56'611.2
2018-Feb-20 06:00N 51°58' W 006°48'711.8
2018-Feb-20 05:25N 51°60' W 006°37'612.4
2018-Feb-20 04:58N 52°02' W 006°29'613.1
2018-Feb-20 04:30N 52°05' W 006°20'713.8
2018-Feb-20 04:00N 52°08' W 006°11'714.1
2018-Feb-20 03:30N 52°15' W 006°05'714.2
2018-Feb-20 03:00N 52°22' W 006°02'2612.5
2018-Feb-20 00:56N 52°47' W 005°52'511.1
2018-Feb-20 00:30N 52°52' W 005°50'510.6
2018-Feb-20 00:00N 52°57' W 005°48'510.0
2018-Feb-19 23:31N 53°01' W 005°46'7311.2
2018-Feb-19 16:59N 54°13' W 005°21'510.5
2018-Feb-19 16:30N 54°18' W 005°19'510.3
2018-Feb-19 16:01N 54°23' W 005°18'5 9.7
2018-Feb-19 15:30N 54°27' W 005°18'5 9.9
2018-Feb-19 15:00N 54°32' W 005°20'5 9.6
2018-Feb-19 14:30N 54°37' W 005°23'5 9.7
2018-Feb-19 14:00N 54°41' W 005°27'4 8.5
2018-Feb-19 13:30N 54°43' W 005°33'510.9
2018-Feb-19 13:00N 54°42' W 005°43'7 9.6
2018-Feb-19 12:16N 54°38' W 005°53'1 0.1
2018-Feb-18 18:08N 54°37' W 005°55'0 0.0
2018-Feb-18 01:35N 54°37' W 005°55'0 0.0
2018-Feb-17 15:05N 54°37' W 005°55'0 0.0
2018-Feb-17 07:32N 54°37' W 005°55'0 0.0
2018-Feb-15 22:25N 54°37' W 005°55'0 0.2
2018-Feb-15 21:56N 54°37' W 005°55'1 2.5
2018-Feb-15 21:29N 54°38' W 005°53'4 8.8
2018-Feb-15 21:01N 54°41' W 005°49'5 9.6
2018-Feb-15 20:31N 54°42' W 005°41'1 2.9
2018-Feb-15 20:00N 54°41' W 005°39'0 0.0
2018-Feb-15 19:30N 54°41' W 005°39'0 0.0
2018-Feb-15 19:00N 54°41' W 005°39'0 0.0
2018-Feb-15 18:30N 54°41' W 005°39'0 0.0
2018-Feb-15 18:00N 54°41' W 005°39'0 0.0
2018-Feb-15 17:30N 54°41' W 005°39'0 0.0
2018-Feb-15 17:00N 54°41' W 005°39'0 0.0
2018-Feb-15 16:30N 54°41' W 005°39'0 0.1
2018-Feb-15 16:00N 54°41' W 005°39'0 0.0
2018-Feb-15 15:30N 54°41' W 005°39'0 0.0
2018-Feb-15 15:00N 54°41' W 005°39'0 0.0
2018-Feb-15 14:30N 54°41' W 005°39'0 0.0
2018-Feb-15 14:00N 54°41' W 005°39'0 0.0
2018-Feb-15 13:30N 54°41' W 005°39'0 0.0
2018-Feb-15 13:00N 54°41' W 005°39'0 0.0
2018-Feb-15 12:30N 54°41' W 005°39'0 0.0
2018-Feb-15 12:00N 54°41' W 005°39'0 0.0
2018-Feb-15 11:30N 54°41' W 005°39'0 0.0
2018-Feb-15 10:57N 54°41' W 005°39'0 0.0
2018-Feb-15 10:30N 54°41' W 005°39'0 0.1
2018-Feb-15 10:00N 54°41' W 005°39'0 0.0
2018-Feb-15 09:30N 54°41' W 005°39'0 0.0
2018-Feb-15 09:00N 54°41' W 005°39'0 0.0
2018-Feb-15 08:30N 54°41' W 005°39'0 0.0
2018-Feb-15 08:00N 54°41' W 005°39'0 0.0
2018-Feb-15 07:30N 54°41' W 005°39'0 0.0
2018-Feb-15 07:00N 54°41' W 005°39'0 0.0
2018-Feb-15 06:24N 54°41' W 005°39'0 0.0
2018-Feb-15 06:00N 54°41' W 005°39'0 0.0
2018-Feb-15 05:30N 54°41' W 005°39'0 0.0
2018-Feb-15 05:00N 54°41' W 005°39'0 0.0
2018-Feb-15 04:30N 54°41' W 005°39'0 0.0
2018-Feb-15 03:57N 54°41' W 005°39'0 0.0
2018-Feb-15 03:30N 54°41' W 005°39'0 0.0
2018-Feb-15 03:00N 54°41' W 005°39'0 0.0
2018-Feb-15 02:30N 54°41' W 005°39'0 0.0
2018-Feb-15 02:00N 54°41' W 005°39'0 0.0
2018-Feb-15 01:30N 54°41' W 005°39'0 0.1
2018-Feb-15 01:00N 54°41' W 005°39'0 0.0
2018-Feb-15 00:30N 54°41' W 005°39'0 0.0
2018-Feb-15 00:00N 54°41' W 005°39'0 0.0
2018-Feb-14 23:30N 54°41' W 005°39'0 0.0
2018-Feb-14 23:00N 54°41' W 005°39'0 0.0
2018-Feb-14 22:30N 54°41' W 005°39'0 0.1
2018-Feb-14 22:00N 54°41' W 005°39'0 0.1
2018-Feb-14 21:30N 54°41' W 005°39'0 0.5
2018-Feb-14 21:01N 54°42' W 005°39'3 6.2
2018-Feb-14 20:30N 54°43' W 005°34'4 8.6
2018-Feb-14 20:01N 54°43' W 005°27'4 8.6
2018-Feb-14 19:31N 54°39' W 005°23'5 9.0
2018-Feb-14 19:01N 54°35' W 005°19'5 9.4
2018-Feb-14 18:31N 54°31' W 005°15'5 9.4
2018-Feb-14 18:00N 54°27' W 005°12'5 9.7
2018-Feb-14 17:30N 54°22' W 005°09'63 4.0
2018-Feb-14 01:46N 53°34' W 003°60'413.0
2018-Feb-14 01:30N 53°34' W 003°54'612.9
2018-Feb-14 01:00N 53°34' W 003°43'612.5
2018-Feb-14 00:30N 53°34' W 003°33'612.3
2018-Feb-14 00:01N 53°33' W 003°22'5 9.9
2018-Feb-13 23:30N 53°31' W 003°15'611.0
2018-Feb-13 23:00N 53°30' W 003°06'612.3
2018-Feb-13 22:30N 53°25' W 003°00'510.3
2018-Feb-13 22:01N 53°21' W 002°54'0 0.3
2018-Feb-13 21:30N 53°21' W 002°54'0 0.0
2018-Feb-13 21:00N 53°21' W 002°54'0 0.0
2018-Feb-13 20:30N 53°21' W 002°54'0 0.0
2018-Feb-13 20:00N 53°21' W 002°54'0 0.0
2018-Feb-13 19:27N 53°21' W 002°54'0 0.0
2018-Feb-13 18:57N 53°21' W 002°54'0 0.0
2018-Feb-13 18:30N 53°21' W 002°54'0 0.0
2018-Feb-13 17:53N 53°21' W 002°54'0 0.0
2018-Feb-13 17:30N 53°21' W 002°54'0 0.0
2018-Feb-13 17:00N 53°21' W 002°54'0 0.0
2018-Feb-13 16:30N 53°21' W 002°54'0 0.0
2018-Feb-13 16:00N 53°21' W 002°54'0 0.0
2018-Feb-13 15:26N 53°21' W 002°54'0 0.0
2018-Feb-13 15:00N 53°21' W 002°54'0 0.0
2018-Feb-13 14:17N 53°21' W 002°54'0 0.0
2018-Feb-13 14:00N 53°21' W 002°54'0 0.0
2018-Feb-13 13:30N 53°21' W 002°54'0 0.0
2018-Feb-13 12:59N 53°21' W 002°54'0 0.0
2018-Feb-13 12:29N 53°21' W 002°54'0 0.0
2018-Feb-13 11:59N 53°21' W 002°54'0 0.0
2018-Feb-13 11:29N 53°21' W 002°54'0 0.0
2018-Feb-13 10:59N 53°21' W 002°54'0 0.0
2018-Feb-13 10:26N 53°21' W 002°54'0 0.0
2018-Feb-13 09:59N 53°21' W 002°54'0 0.0
2018-Feb-13 09:26N 53°21' W 002°54'0 0.0
2018-Feb-13 08:59N 53°21' W 002°54'0 0.0
2018-Feb-13 08:29N 53°21' W 002°54'0 0.0
2018-Feb-13 07:59N 53°21' W 002°54'0 0.0
2018-Feb-13 07:29N 53°21' W 002°54'0 0.0
2018-Feb-13 06:50N 53°21' W 002°54'0 0.0
2018-Feb-13 06:29N 53°21' W 002°54'0 0.0
2018-Feb-13 05:59N 53°21' W 002°54'0 0.0
2018-Feb-13 05:29N 53°21' W 002°54'0 0.0
2018-Feb-13 04:56N 53°21' W 002°54'0 0.0
2018-Feb-13 04:23N 53°21' W 002°54'0 0.0
2018-Feb-13 03:56N 53°21' W 002°54'0 0.0
2018-Feb-13 03:23N 53°21' W 002°54'0 0.0
2018-Feb-13 02:59N 53°21' W 002°54'0 0.0
2018-Feb-13 02:26N 53°21' W 002°54'0 0.0
2018-Feb-13 01:59N 53°21' W 002°54'0 0.0
2018-Feb-13 01:29N 53°21' W 002°54'0 0.0
2018-Feb-13 00:59N 53°21' W 002°54'0 0.0
2018-Feb-13 00:29N 53°21' W 002°54'0 0.0
2018-Feb-12 23:59N 53°21' W 002°54'0 0.0
2018-Feb-12 23:26N 53°21' W 002°54'0 0.0
2018-Feb-12 22:59N 53°21' W 002°54'0 0.0
2018-Feb-12 22:29N 53°21' W 002°54'0 0.0
2018-Feb-12 21:59N 53°21' W 002°54'0 0.0
2018-Feb-12 21:26N 53°21' W 002°54'0 0.0
2018-Feb-12 20:59N 53°21' W 002°54'0 0.0
2018-Feb-12 20:29N 53°21' W 002°54'0 0.0
2018-Feb-12 19:56N 53°21' W 002°54'0 0.0
2018-Feb-12 19:29N 53°21' W 002°54'0 0.0
2018-Feb-12 18:56N 53°21' W 002°54'0 0.0
2018-Feb-12 18:29N 53°21' W 002°54'0 0.0
2018-Feb-12 17:56N 53°21' W 002°54'0 0.0
2018-Feb-12 17:23N 53°21' W 002°54'0 0.0
2018-Feb-12 16:56N 53°21' W 002°54'0 0.0
2018-Feb-12 16:29N 53°21' W 002°54'0 0.0
2018-Feb-12 15:59N 53°21' W 002°54'0 0.0
2018-Feb-12 15:08N 53°21' W 002°54'0 0.0
2018-Feb-12 14:59N 53°21' W 002°54'0 0.0
2018-Feb-12 14:23N 53°21' W 002°54'0 0.0
2018-Feb-12 13:59N 53°21' W 002°54'0 0.0
2018-Feb-12 13:29N 53°21' W 002°54'0 0.0
2018-Feb-12 12:59N 53°21' W 002°54'0 0.0
2018-Feb-12 12:29N 53°21' W 002°54'0 0.0
2018-Feb-12 11:59N 53°21' W 002°54'0 0.0
2018-Feb-12 11:26N 53°21' W 002°54'0 0.0
2018-Feb-12 10:59N 53°21' W 002°54'0 0.0
2018-Feb-12 10:29N 53°21' W 002°54'0 0.0
2018-Feb-12 09:59N 53°21' W 002°54'0 0.0
2018-Feb-12 09:29N 53°21' W 002°54'0 0.0
2018-Feb-12 08:59N 53°21' W 002°54'0 0.0
2018-Feb-12 08:29N 53°21' W 002°54'0 0.0
2018-Feb-12 07:53N 53°21' W 002°54'0 0.0
2018-Feb-12 07:26N 53°21' W 002°54'0 0.0
2018-Feb-12 06:59N 53°21' W 002°54'0 0.0
2018-Feb-12 06:29N 53°21' W 002°54'0 0.0
2018-Feb-12 05:59N 53°21' W 002°54'0 0.0
2018-Feb-12 05:29N 53°21' W 002°54'0 0.0
2018-Feb-12 04:59N 53°21' W 002°54'0 0.0
2018-Feb-12 04:29N 53°21' W 002°54'0 0.0
2018-Feb-12 03:59N 53°21' W 002°54'0 0.0
2018-Feb-12 03:29N 53°21' W 002°54'0 0.0
2018-Feb-12 02:59N 53°21' W 002°54'0 0.0
2018-Feb-12 02:29N 53°21' W 002°54'0 0.0
2018-Feb-12 01:59N 53°21' W 002°54'0 0.0
2018-Feb-12 01:29N 53°21' W 002°54'0 0.0
2018-Feb-12 00:59N 53°21' W 002°54'0 0.0
2018-Feb-12 00:29N 53°21' W 002°54'0 0.0
2018-Feb-11 23:59N 53°21' W 002°54'0 0.0
2018-Feb-11 23:29N 53°21' W 002°54'0 0.0
2018-Feb-11 22:59N 53°21' W 002°54'0 0.0
2018-Feb-11 22:29N 53°21' W 002°54'0 0.0
2018-Feb-11 21:59N 53°21' W 002°54'0 0.0
2018-Feb-11 21:29N 53°21' W 002°54'0 0.0
2018-Feb-11 21:00N 53°21' W 002°54'0 0.7
2018-Feb-11 20:30N 53°21' W 002°55'2 3.1
2018-Feb-11 20:00N 53°22' W 002°57'2 4.6
2018-Feb-11 19:30N 53°23' W 002°60'3 6.2
2018-Feb-11 19:00N 53°26' W 003°01'510.2
2018-Feb-11 18:29N 53°31' W 003°06'5 9.6
2018-Feb-11 18:00N 53°31' W 003°14'611.0
2018-Feb-11 17:30N 53°33' W 003°23'611.5
2018-Feb-11 17:00N 53°37' W 003°30'611.7
2018-Feb-11 16:28N 53°41' W 003°38'61 6.3
2018-Feb-11 06:47N 54°17' W 005°03'3 9.1
2018-Feb-11 06:30N 54°19' W 005°04'5 9.2
2018-Feb-11 06:00N 54°24' W 005°07'5 9.2
2018-Feb-11 05:30N 54°28' W 005°09'5 9.6
2018-Feb-11 05:00N 54°33' W 005°12'510.5
2018-Feb-11 04:30N 54°37' W 005°17'511.0
2018-Feb-11 04:00N 54°42' W 005°22'611.5
2018-Feb-11 03:30N 54°47' W 005°27'611.7
2018-Feb-11 03:00N 54°52' W 005°32'2310.8
2018-Feb-11 00:55N 55°11' W 005°54'410.0
2018-Feb-11 00:30N 55°14' W 005°58'5 9.4
2018-Feb-11 00:00N 55°18' W 006°03'5 9.0
2018-Feb-10 23:30N 55°21' W 006°08'5 9.5
2018-Feb-10 23:00N 55°23' W 006°16'510.4
2018-Feb-10 22:30N 55°27' W 006°22'510.1
2018-Feb-10 22:00N 55°31' W 006°27'510.0
2018-Feb-10 21:29N 55°35' W 006°33'  

Dump ship's entire track history